Time;durP1;ratioP1;P1;durP2;ratioP2;P2;SDS_P1;SDS_P2;PMS_P1;PMS_P2;Temp;Humidity;BMP_temperature;BMP_pressure;BME280_temperature;BME280_humidity;BME280_pressure;Samples;Min_cycle;Max_cycle;Signal;HPM_P1;HPM_P2
2022/05/13 00:01:36;;;;;;;4.67;1.97;;;12.10;20.10;;;;;;5049932;28;20425;-89
2022/05/13 00:04:02;;;;;;;4.83;1.10;;;12.10;23.30;;;;;;5053164;28;20919;-84
2022/05/13 00:06:28;;;;;;;3.93;1.07;;;12.10;22.90;;;;;;5050134;28;20168;-87
2022/05/13 00:09:03;;;;;;;3.20;0.70;;;12.10;55.60;;;;;;5055469;28;20696;-88
2022/05/13 00:11:28;;;;;;;4.10;0.80;;;12.10;64.10;;;;;;5038335;28;20208;-85
2022/05/13 00:13:54;;;;;;;4.23;0.60;;;12.00;91.40;;;;;;5047424;28;20515;-83
2022/05/13 00:16:19;;;;;;;1.47;0.60;;;12.00;95.00;;;;;;5055679;28;20201;-88
2022/05/13 00:18:45;;;;;;;2.87;1.10;;;12.00;99.90;;;;;;5055782;28;20183;-87
2022/05/13 00:21:10;;;;;;;5.60;1.67;;;12.00;99.90;;;;;;5055755;28;20194;-86
2022/05/13 00:23:36;;;;;;;1.83;0.47;;;11.90;99.90;;;;;;5055315;28;20239;-83
2022/05/13 00:26:02;;;;;;;3.27;2.27;;;11.90;99.90;;;;;;5037451;28;20237;-87
2022/05/13 00:28:28;;;;;;;2.00;0.60;;;11.90;99.90;;;;;;5055273;28;20198;-87
2022/05/13 00:31:03;;;;;;;3.77;0.90;;;11.90;99.90;;;;;;5037528;28;20183;-89
2022/05/13 00:33:29;;;;;;;4.60;0.93;;;11.90;99.90;;;;;;5037725;28;20229;-83
2022/05/13 00:35:54;;;;;;;1.43;0.50;;;11.90;99.90;;;;;;5055114;28;20417;-87
2022/05/13 00:38:20;;;;;;;5.60;1.40;;;11.90;99.90;;;;;;5054724;28;20638;-82
2022/05/13 00:40:46;;;;;;;2.00;0.60;;;11.90;99.90;;;;;;5055091;28;20172;-83
2022/05/13 00:43:14;;;;;;;3.13;1.10;;;11.80;99.90;;;;;;5036835;28;20459;-82
2022/05/13 00:45:40;;;;;;;2.67;0.77;;;11.80;99.90;;;;;;5037198;28;20285;-87
2022/05/13 00:48:08;;;;;;;1.60;0.53;;;11.80;99.90;;;;;;5037006;28;20987;-83
2022/05/13 00:50:38;;;;;;;6.60;1.27;;;11.70;99.90;;;;;;5054798;28;20424;-88
2022/05/13 00:53:06;;;;;;;2.40;0.47;;;11.80;99.90;;;;;;5036641;28;20465;-83
2022/05/13 00:55:40;;;;;;;5.83;0.70;;;11.70;99.90;;;;;;5054731;28;20435;-87
2022/05/13 00:58:09;;;;;;;2.57;0.73;;;11.80;99.90;;;;;;5036756;28;20426;-83
2022/05/13 01:00:36;;;;;;;4.73;0.83;;;11.70;99.90;;;;;;5054632;28;20416;-83
2022/05/13 01:03:03;;;;;;;3.37;1.13;;;11.60;99.90;;;;;;5054615;28;20795;-82
2022/05/13 01:05:28;;;;;;;4.97;0.93;;;11.60;99.90;;;;;;5054770;28;20418;-87
2022/05/13 01:07:54;;;;;;;4.00;0.63;;;11.50;99.90;;;;;;5053954;28;20426;-83
2022/05/13 01:10:24;;;;;;;6.13;1.20;;;11.40;99.90;;;;;;5054568;28;20163;-87
2022/05/13 01:12:55;;;;;;;4.50;0.77;;;11.50;99.90;;;;;;5035863;28;20418;-86
2022/05/13 01:15:26;;;;;;;3.33;0.87;;;11.30;99.90;;;;;;5054546;28;20417;-88
2022/05/13 01:18:07;;;;;;;6.10;0.80;;;11.20;99.90;;;;;;5054620;28;20768;-83
2022/05/13 01:20:40;;;;;;;1.90;0.80;;;11.20;99.90;;;;;;5054478;28;20425;-82
2022/05/13 01:23:11;;;;;;;3.50;1.13;;;11.00;99.90;;;;;;5054190;28;20730;-83
2022/05/13 01:25:44;;;;;;;3.87;0.57;;;11.00;99.90;;;;;;5054356;28;20432;-85
2022/05/13 01:28:18;;;;;;;4.00;1.20;;;10.80;99.90;;;;;;5036660;28;20771;-88
2022/05/13 01:30:57;;;;;;;4.83;1.07;;;10.80;99.90;;;;;;5054413;28;20411;-82
2022/05/13 01:33:23;;;;;;;1.73;0.47;;;10.70;99.90;;;;;;5036676;28;20472;-88
2022/05/13 01:35:52;;;;;;;3.63;0.60;;;10.70;99.90;;;;;;5036369;28;20755;-89
2022/05/13 01:38:20;;;;;;;3.30;1.13;;;10.70;99.90;;;;;;5036034;28;20423;-89
2022/05/13 01:40:45;;;;;;;2.60;1.13;;;10.70;99.90;;;;;;5054092;28;20518;-84
2022/05/13 01:43:11;;;;;;;2.60;0.83;;;10.50;99.90;;;;;;5035979;28;20455;-85
2022/05/13 01:45:38;;;;;;;3.33;1.40;;;10.50;99.90;;;;;;5036150;28;20185;-87
2022/05/13 01:48:04;;;;;;;5.57;0.90;;;10.70;99.90;;;;;;5054078;28;20521;-87
2022/05/13 01:50:30;;;;;;;3.13;0.80;;;10.70;99.90;;;;;;5053968;28;20419;-89
2022/05/13 01:52:56;;;;;;;6.30;1.67;;;10.60;99.90;;;;;;5053525;28;20442;-88
2022/05/13 01:55:22;;;;;;;3.90;0.70;;;10.40;99.90;;;;;;5054039;28;20227;-90
2022/05/13 01:57:48;;;;;;;3.60;0.90;;;10.40;99.90;;;;;;5053756;28;20260;-90
2022/05/13 02:00:14;;;;;;;2.83;1.20;;;10.30;99.90;;;;;;5053949;28;20837;-88
2022/05/13 02:05:25;;;;;;;5.03;1.63;;;10.40;99.90;;;;;;5054141;28;20701;-84
2022/05/13 02:07:51;;;;;;;1.60;0.53;;;10.30;99.90;;;;;;5053558;28;20854;-89
2022/05/13 02:10:17;;;;;;;4.53;1.40;;;10.30;99.90;;;;;;5053502;28;20427;-88
2022/05/13 02:12:46;;;;;;;3.20;1.60;;;10.20;99.90;;;;;;5053567;28;20897;-84
2022/05/13 02:15:12;;;;;;;5.00;0.90;;;10.20;99.90;;;;;;5035931;28;20449;-87
2022/05/13 02:17:38;;;;;;;1.83;0.80;;;10.20;99.90;;;;;;5053923;28;20511;-82
2022/05/13 02:20:05;;;;;;;6.20;1.17;;;10.10;99.90;;;;;;5053363;28;20215;-88
2022/05/13 02:22:31;;;;;;;4.47;1.60;;;10.10;99.90;;;;;;5053259;28;20412;-88
2022/05/13 02:24:56;;;;;;;2.33;0.80;;;10.00;99.90;;;;;;5052932;28;20926;-87
2022/05/13 02:27:22;;;;;;;2.17;1.30;;;10.00;99.90;;;;;;5053583;28;20179;-89
2022/05/13 02:29:47;;;;;;;3.40;1.00;;;9.90;99.90;;;;;;5053421;28;20248;-86
2022/05/13 02:32:13;;;;;;;2.37;0.60;;;9.90;99.90;;;;;;5053409;28;20180;-84
2022/05/13 02:34:38;;;;;;;2.67;1.33;;;9.80;99.90;;;;;;5053670;28;20221;-86
2022/05/13 02:37:04;;;;;;;2.97;1.17;;;9.90;99.90;;;;;;5052927;28;20227;-87
2022/05/13 02:39:30;;;;;;;3.53;1.30;;;9.90;99.90;;;;;;5035398;28;20181;-84
2022/05/13 02:41:56;;;;;;;3.43;1.37;;;9.70;99.90;;;;;;5035627;28;20788;-85
2022/05/13 02:44:22;;;;;;;3.43;1.23;;;9.70;99.90;;;;;;5053160;28;20462;-83
2022/05/13 02:46:48;;;;;;;3.10;1.23;;;9.60;99.90;;;;;;5053429;28;20162;-90
2022/05/13 02:49:14;;;;;;;7.63;2.10;;;9.50;99.90;;;;;;5053669;28;20433;-89
2022/05/13 02:51:40;;;;;;;2.73;0.97;;;9.50;99.90;;;;;;5053361;28;20505;-85
2022/05/13 02:54:07;;;;;;;3.30;1.00;;;9.40;99.90;;;;;;5035647;28;20473;-89
2022/05/13 02:56:35;;;;;;;8.20;1.67;;;9.30;99.90;;;;;;5053318;28;20499;-88
2022/05/13 02:59:01;;;;;;;3.83;1.23;;;9.20;99.90;;;;;;5053290;28;20499;-87
2022/05/13 03:01:27;;;;;;;2.20;1.00;;;9.10;99.90;;;;;;5052580;28;20514;-85
2022/05/13 03:03:52;;;;;;;2.60;1.20;;;9.00;99.90;;;;;;5035063;28;20191;-88
2022/05/13 03:06:21;;;;;;;2.20;1.43;;;9.00;99.90;;;;;;5034758;28;20416;-86
2022/05/13 03:08:47;;;;;;;4.63;2.00;;;8.90;99.90;;;;;;5052843;28;20186;-86
2022/05/13 03:11:14;;;;;;;2.80;1.33;;;9.00;99.90;;;;;;5052957;28;20759;-84
2022/05/13 03:13:40;;;;;;;4.87;1.30;;;8.90;99.90;;;;;;5052775;28;20462;-85
2022/05/13 03:16:18;;;;;;;4.43;1.73;;;8.80;99.90;;;;;;5052840;28;20442;-86
2022/05/13 03:18:47;;;;;;;3.13;1.20;;;8.80;99.90;;;;;;5052823;28;20447;-83
2022/05/13 03:21:13;;;;;;;4.60;1.50;;;8.90;99.90;;;;;;5052509;28;20447;-84
2022/05/13 03:23:43;;;;;;;4.50;1.50;;;8.90;99.90;;;;;;5052720;28;20442;-87
2022/05/13 03:26:10;;;;;;;7.17;1.67;;;8.80;99.90;;;;;;5052569;28;20177;-86
2022/05/13 03:28:39;;;;;;;5.53;1.10;;;8.80;99.90;;;;;;5052595;28;20453;-82
2022/05/13 03:31:05;;;;;;;4.33;1.27;;;8.80;99.90;;;;;;5034937;28;20438;-82
2022/05/13 03:33:31;;;;;;;5.67;1.67;;;8.80;99.90;;;;;;5052590;28;20555;-82
2022/05/13 03:35:58;;;;;;;3.57;1.57;;;8.80;99.90;;;;;;5054770;28;20961;-83
2022/05/13 03:38:23;;;;;;;7.53;2.17;;;9.00;99.90;;;;;;5056008;28;20407;-87
2022/05/13 03:40:49;;;;;;;7.63;2.17;;;9.30;99.90;;;;;;5056351;28;20920;-82
2022/05/13 03:43:15;;;;;;;5.83;2.27;;;9.30;99.90;;;;;;5056112;28;20231;-83
2022/05/13 03:45:41;;;;;;;2.83;1.70;;;9.40;99.90;;;;;;5056529;28;20174;-83
2022/05/13 03:48:07;;;;;;;4.60;1.70;;;9.40;99.90;;;;;;5056258;28;20411;-84
2022/05/13 03:50:35;;;;;;;4.63;1.83;;;9.40;99.90;;;;;;5055972;28;20771;-82
2022/05/13 03:53:04;;;;;;;4.80;1.60;;;9.40;99.90;;;;;;5055459;28;20411;-83
2022/05/13 03:55:31;;;;;;;3.50;2.40;;;9.60;99.90;;;;;;5055906;28;20423;-85
2022/05/13 03:57:56;;;;;;;5.07;2.03;;;9.70;99.90;;;;;;5037975;28;20913;-83
2022/05/13 04:00:23;;;;;;;7.10;1.93;;;9.70;99.90;;;;;;5037534;28;20416;-83
2022/05/13 04:02:48;;;;;;;3.73;1.73;;;9.90;99.90;;;;;;5037956;28;20185;-89
2022/05/13 04:10:43;;;;;;;3.00;1.73;;;9.90;99.90;;;;;;5055920;28;20414;-86
2022/05/13 04:16:06;;;;;;;5.87;1.83;;;10.10;99.90;;;;;;5056261;28;20179;-84
2022/05/13 04:18:39;;;;;;;5.93;1.60;;;10.10;99.90;;;;;;5038096;28;20930;-84
2022/05/13 04:21:11;;;;;;;5.87;2.03;;;10.10;99.90;;;;;;5055363;28;20422;-90
2022/05/13 04:23:38;;;;;;;5.10;2.97;;;10.10;99.90;;;;;;5055925;28;20418;-86
2022/05/13 04:26:04;;;;;;;3.10;2.03;;;10.20;99.90;;;;;;5037891;28;20420;-83
2022/05/13 04:28:30;;;;;;;7.60;2.23;;;10.30;99.90;;;;;;5037678;28;20454;-82
2022/05/13 04:30:58;;;;;;;6.83;2.20;;;10.30;99.90;;;;;;5055712;28;20421;-90
2022/05/13 04:33:24;;;;;;;4.40;1.40;;;10.30;99.90;;;;;;5038022;28;20215;-87
2022/05/13 04:35:49;;;;;;;6.20;1.90;;;10.40;99.90;;;;;;5055185;28;20799;-81
2022/05/13 04:38:15;;;;;;;5.50;2.80;;;10.50;99.90;;;;;;5037406;28;20437;-84
2022/05/13 04:40:41;;;;;;;6.80;2.00;;;10.60;99.90;;;;;;5037777;28;20297;-84
2022/05/13 04:43:06;;;;;;;7.33;2.63;;;10.70;99.90;;;;;;5055141;28;20652;-88
2022/05/13 04:45:32;;;;;;;3.63;2.00;;;10.80;99.90;;;;;;5037428;28;20253;-82
2022/05/13 04:48:19;;;;;;;4.03;1.50;;;10.90;99.90;;;;;;5054395;28;20171;-84
2022/05/13 04:50:58;;;;;;;5.60;2.00;;;11.00;99.90;;;;;;5055270;28;20170;-88
2022/05/13 04:53:26;;;;;;;4.97;1.60;;;11.10;99.90;;;;;;5054739;28;20455;-87
2022/05/13 04:55:53;;;;;;;7.40;2.27;;;11.10;99.90;;;;;;5054580;28;20415;-84
2022/05/13 04:58:19;;;;;;;7.37;2.03;;;11.20;99.90;;;;;;5036719;28;20503;-84
2022/05/13 05:00:47;;;;;;;3.50;1.77;;;11.20;99.90;;;;;;5054498;28;20420;-86
2022/05/13 05:03:13;;;;;;;3.77;2.70;;;11.30;99.90;;;;;;5036668;28;20452;-84
2022/05/13 05:05:43;;;;;;;4.50;1.40;;;11.30;99.90;;;;;;5054392;28;20412;-85
2022/05/13 05:08:10;;;;;;;9.13;1.97;;;11.30;99.90;;;;;;5054048;28;20504;-84
2022/05/13 05:10:36;;;;;;;3.37;1.97;;;11.30;99.90;;;;;;5054394;28;20419;-84
2022/05/13 05:13:02;;;;;;;3.67;1.70;;;11.30;99.90;;;;;;5054759;28;20408;-83
2022/05/13 05:15:28;;;;;;;5.43;2.03;;;11.30;99.90;;;;;;5054739;28;20943;-82
2022/05/13 05:17:55;;;;;;;5.77;2.13;;;11.30;99.90;;;;;;5036481;28;20180;-86
2022/05/13 05:20:21;;;;;;;2.73;1.60;;;11.40;99.90;;;;;;5036228;28;20773;-86
2022/05/13 05:22:47;;;;;;;4.50;1.63;;;11.50;99.90;;;;;;5053580;28;20504;-83
2022/05/13 05:25:15;;;;;;;9.90;2.83;;;11.40;99.90;;;;;;5053179;28;20559;-87
2022/05/13 05:27:41;;;;;;;3.63;2.00;;;11.50;99.90;;;;;;5053061;28;20417;-84
2022/05/13 05:30:09;;;;;;;6.27;1.93;;;11.50;99.90;;;;;;5053437;28;20790;-83
2022/05/13 05:32:37;;;;;;;3.47;1.33;;;11.60;99.90;;;;;;5053586;28;20181;-85
2022/05/13 05:35:04;;;;;;;6.73;1.97;;;11.60;99.90;;;;;;5054155;28;20480;-82
2022/05/13 05:37:29;;;;;;;6.33;1.93;;;11.60;99.90;;;;;;5053475;28;20496;-86
2022/05/13 05:39:55;;;;;;;6.27;2.40;;;11.60;99.90;;;;;;5054085;28;20559;-82
2022/05/13 05:42:20;;;;;;;7.83;2.60;;;11.60;99.90;;;;;;5054038;28;20172;-84
2022/05/13 05:44:46;;;;;;;5.87;2.63;;;11.60;99.90;;;;;;5053769;28;20249;-83
2022/05/13 05:47:11;;;;;;;4.20;1.60;;;11.70;99.90;;;;;;5053922;28;20184;-82
2022/05/13 05:49:37;;;;;;;5.03;2.10;;;11.70;99.90;;;;;;5053575;28;20700;-83
2022/05/13 05:52:03;;;;;;;5.17;1.27;;;11.80;99.90;;;;;;5053252;28;20256;-82
2022/05/13 05:57:15;;;;;;;1.83;1.63;;;11.80;99.90;;;;;;5054001;28;20169;-86
2022/05/13 05:59:45;;;;;;;6.50;2.70;;;11.90;99.90;;;;;;5053325;28;20417;-83
2022/05/13 06:02:11;;;;;;;7.50;2.17;;;11.90;99.90;;;;;;5048952;28;20425;-82
2022/05/13 06:04:37;;;;;;;3.67;2.03;;;12.00;99.90;;;;;;5053456;28;20408;-83
2022/05/13 06:07:09;;;;;;;4.63;1.47;;;12.00;77.20;;;;;;5053038;28;20807;-85
2022/05/13 06:09:34;;;;;;;5.47;1.57;;;12.20;99.90;;;;;;5046926;28;20425;-86
2022/05/13 06:12:00;;;;;;;3.73;1.57;;;12.30;57.90;;;;;;5035393;28;20415;-82
2022/05/13 06:14:27;;;;;;;4.43;1.53;;;12.30;20.60;;;;;;5053108;28;20206;-84
2022/05/13 06:16:53;;;;;;;2.50;1.40;;;12.30;46.20;;;;;;5035290;28;20180;-84
2022/05/13 06:19:18;;;;;;;3.17;1.80;;;12.30;53.20;;;;;;5035453;28;20448;-82
2022/05/13 06:21:44;;;;;;;6.20;1.57;;;12.30;47.50;;;;;;5052681;28;20422;-83
2022/05/13 06:24:12;;;;;;;4.57;2.27;;;12.20;48.30;;;;;;5035408;28;20176;-82
2022/05/13 06:26:38;;;;;;;4.10;1.27;;;12.20;92.60;;;;;;5053473;28;20173;-87
2022/05/13 06:29:05;;;;;;;4.00;1.93;;;12.10;99.90;;;;;;5053164;28;20420;-83
2022/05/13 06:31:31;;;;;;;3.63;0.90;;;12.20;61.20;;;;;;5053187;28;20166;-83
2022/05/13 06:33:56;;;;;;;4.60;1.13;;;12.20;17.60;;;;;;5035355;28;20496;-87
2022/05/13 06:36:22;;;;;;;4.80;1.63;;;12.20;52.00;;;;;;5052547;28;20675;-87
2022/05/13 06:38:51;;;;;;;6.00;2.07;;;12.20;18.30;;;;;;5053016;28;20181;-85
2022/05/13 06:41:17;;;;;;;5.20;1.50;;;12.10;4.30;;;;;;5053117;28;20170;-88
2022/05/13 06:43:45;;;;;;;5.40;1.47;;;12.20;32.70;;;;;;5052964;28;20567;-86
2022/05/13 06:46:11;;;;;;;2.97;1.20;;;12.20;17.80;;;;;;5053335;28;20184;-91
2022/05/13 06:48:37;;;;;;;3.30;1.87;;;12.20;42.00;;;;;;5053495;28;20443;-87
2022/05/13 06:51:04;;;;;;;11.37;1.97;;;12.20;20.30;;;;;;5053127;28;20577;-86
2022/05/13 06:53:33;;;;;;;3.10;0.90;;;12.20;95.30;;;;;;5053144;28;20868;-84
2022/05/13 06:55:58;;;;;;;2.87;1.70;;;12.20;1.00;;;;;;5053178;28;20412;-90
2022/05/13 06:58:24;;;;;;;2.17;1.30;;;12.10;24.30;;;;;;5054287;28;20416;-90
2022/05/13 07:00:49;;;;;;;6.73;1.90;;;12.20;31.80;;;;;;5036610;28;20801;-90
2022/05/13 07:03:17;;;;;;;8.20;1.60;;;12.20;69.40;;;;;;5054254;28;20182;-91
2022/05/13 07:05:43;;;;;;;4.43;1.40;;;12.20;99.90;;;;;;5036298;28;20175;-89
2022/05/13 07:08:10;;;;;;;4.70;1.23;;;12.30;99.90;;;;;;5036294;28;20470;-88
2022/05/13 07:10:39;;;;;;;5.57;1.97;;;12.20;99.90;;;;;;5055629;28;20516;-90
2022/05/13 07:13:05;;;;;;;6.87;2.50;;;12.20;99.90;;;;;;5057876;28;20472;-89
2022/05/13 07:15:31;;;;;;;3.47;1.77;;;12.20;99.90;;;;;;5066974;28;20443;-90
2022/05/13 07:17:57;;;;;;;6.77;1.50;;;12.20;99.90;;;;;;5057760;28;20417;-86
2022/05/13 07:20:25;;;;;;;7.00;1.67;;;12.30;99.90;;;;;;5056966;28;20639;-89
2022/05/13 07:22:51;;;;;;;6.00;1.70;;;12.30;99.90;;;;;;5057301;28;20418;-89
2022/05/13 07:25:17;;;;;;;5.00;2.10;;;12.30;99.90;;;;;;5057383;28;20424;-87
2022/05/13 07:27:43;;;;;;;5.57;1.90;;;12.40;99.90;;;;;;5039622;28;20930;-88
2022/05/13 07:30:10;;;;;;;7.70;2.43;;;12.40;99.90;;;;;;5058171;28;20619;-89
2022/05/13 07:32:39;;;;;;;5.77;1.87;;;13.60;99.90;;;;;;5057766;28;20427;-93
2022/05/13 07:35:05;;;;;;;5.37;2.13;;;13.10;1.00;;;;;;5057736;28;20981;-90
2022/05/13 07:37:31;;;;;;;6.30;2.30;;;12.80;94.20;;;;;;5056943;28;20771;-89
2022/05/13 07:42:41;;;;;;;6.50;1.57;;;13.00;12.20;;;;;;5057313;28;20164;-89
2022/05/13 07:45:07;;;;;;;4.90;1.57;;;13.30;1.00;;;;;;5056929;28;21046;-91
2022/05/13 07:47:34;;;;;;;7.90;2.70;;;13.70;1.00;;;;;;5039546;28;20923;-89
2022/05/13 07:50:01;;;;;;;7.13;1.97;;;13.90;1.00;;;;;;5057172;28;20895;-89
2022/05/13 07:52:26;;;;;;;5.23;2.40;;;13.80;1.00;;;;;;5056891;28;20448;-89
2022/05/13 07:54:52;;;;;;;4.93;2.60;;;13.50;1.00;;;;;;5056133;28;20899;-86
2022/05/13 07:57:18;;;;;;;9.20;2.20;;;13.40;1.00;;;;;;5056376;28;20583;-89
2022/05/13 08:02:28;;;;;;;6.30;2.13;;;13.20;5.20;;;;;;5056897;28;20180;-83
2022/05/13 08:04:53;;;;;;;6.90;3.13;;;13.00;28.70;;;;;;5056553;28;20404;-88
2022/05/13 08:07:19;;;;;;;5.80;2.53;;;13.00;1.00;;;;;;5056289;28;20170;-88
2022/05/13 08:09:44;;;;;;;8.07;2.70;;;13.10;6.30;;;;;;5056755;28;20172;-84
2022/05/13 08:12:10;;;;;;;6.93;3.23;;;13.10;1.00;;;;;;5056065;28;20207;-89
2022/05/13 08:14:36;;;;;;;5.50;2.30;;;13.20;1.00;;;;;;5056029;28;20242;-90
2022/05/13 08:17:02;;;;;;;8.10;5.17;;;13.30;1.00;;;;;;5038151;28;20434;-83
2022/05/13 08:19:27;;;;;;;5.33;2.23;;;13.40;1.00;;;;;;5038084;28;20193;-89
2022/05/13 08:21:53;;;;;;;13.07;2.63;;;13.50;1.00;;;;;;5037627;28;20180;-83
2022/05/13 08:24:18;;;;;;;7.30;2.60;;;13.70;1.00;;;;;;5037726;28;20178;-85
2022/05/13 08:26:44;;;;;;;7.17;2.80;;;13.90;1.00;;;;;;5055700;28;20176;-86
2022/05/13 08:29:10;;;;;;;10.37;3.30;;;14.00;1.00;;;;;;5061863;28;20169;-88
2022/05/13 08:31:36;;;;;;;5.77;2.53;;;14.10;99.90;;;;;;5057025;28;20486;-84
2022/05/13 08:34:01;;;;;;;6.93;2.87;;;14.10;99.90;;;;;;5054996;28;20205;-91
2022/05/13 08:36:27;;;;;;;5.20;2.50;;;14.20;99.90;;;;;;5038407;28;20416;-91
2022/05/13 08:38:53;;;;;;;7.40;2.53;;;14.30;1.00;;;;;;5037426;28;20217;-91
2022/05/13 08:42:01;;;;;;;6.37;3.00;;;14.50;9.70;;;;;;5055796;28;20537;-84
2022/05/13 08:44:27;;;;;;;8.03;3.17;;;14.60;1.00;;;;;;5037206;28;20697;-88
2022/05/13 08:47:01;;;;;;;5.40;3.10;;;14.90;1.00;;;;;;5065564;28;20431;-90
2022/05/13 08:49:40;;;;;;;5.90;1.43;;;14.90;95.00;;;;;;5065565;28;20179;-90
2022/05/13 08:55:08;;;;;;;7.50;2.60;;;14.90;1.00;;;;;;5065484;28;20484;-86
2022/05/13 08:57:43;;;;;;;6.73;2.03;;;15.10;99.90;;;;;;5061412;28;20481;-86
2022/05/13 09:00:28;;;;;;;8.83;3.07;;;15.10;43.20;;;;;;5054797;28;20872;-85
2022/05/13 09:03:25;;;;;;;6.13;2.40;;;15.10;84.60;;;;;;5037820;28;20471;-86
2022/05/13 09:06:03;;;;;;;6.90;2.27;;;15.00;99.90;;;;;;5054746;28;20782;-84
2022/05/13 09:08:29;;;;;;;4.80;2.43;;;14.90;99.90;;;;;;5054721;28;20415;-85
2022/05/13 09:11:32;;;;;;;8.23;3.23;;;14.80;1.00;;;;;;5054751;28;20426;-89
2022/05/13 09:14:04;;;;;;;11.50;3.77;;;14.90;1.00;;;;;;5036455;28;20482;-89
2022/05/13 09:16:51;;;;;;;7.40;2.60;;;15.00;1.00;;;;;;5054668;28;20902;-85
2022/05/13 09:19:44;;;;;;;7.83;2.33;;;15.20;1.00;;;;;;5037219;28;20423;-86
2022/05/13 09:22:13;;;;;;;7.53;2.60;;;15.10;99.90;;;;;;5043844;28;20426;-84
2022/05/13 09:24:40;;;;;;;13.70;3.20;;;15.30;99.90;;;;;;5037728;28;20445;-90
2022/05/13 09:27:06;;;;;;;10.93;3.90;;;15.40;26.40;;;;;;5037623;28;20416;-87
2022/05/13 09:29:43;;;;;;;13.90;4.10;;;15.80;1.00;;;;;;5064298;28;20417;-87
2022/05/13 09:32:30;;;;;;;6.67;2.50;;;16.00;99.80;;;;;;5059816;28;20172;-87
2022/05/13 09:35:12;;;;;;;10.50;3.37;;;16.20;99.90;;;;;;5039735;28;20573;-85
2022/05/13 09:37:45;;;;;;;3.73;2.47;;;16.40;99.90;;;;;;5058244;28;21185;-85
2022/05/13 09:40:17;;;;;;;7.70;5.40;;;16.70;1.00;;;;;;5056066;28;20407;-91
2022/05/13 09:42:48;;;;;;;8.63;3.10;;;16.80;1.00;;;;;;5054147;28;20409;-86
2022/05/13 09:45:18;;;;;;;10.27;3.47;;;16.70;1.00;;;;;;5054105;28;20438;-85
2022/05/13 09:47:57;;;;;;;9.90;3.43;;;16.90;1.00;;;;;;5054303;28;20410;-89
2022/05/13 09:50:29;;;;;;;6.97;2.53;;;17.70;1.00;;;;;;5035985;28;20430;-88
2022/05/13 09:53:07;;;;;;;7.93;3.13;;;18.30;99.90;;;;;;5054146;28;20426;-85
2022/05/13 09:55:36;;;;;;;5.97;2.33;;;18.50;99.90;;;;;;5053893;28;20422;-84
2022/05/13 09:58:05;;;;;;;8.93;3.20;;;18.30;99.90;;;;;;5054201;28;20404;-93
2022/05/13 10:00:37;;;;;;;7.50;2.67;;;17.80;99.90;;;;;;5054230;28;20780;-89
2022/05/13 10:03:29;;;;;;;4.73;2.93;;;17.30;99.90;;;;;;5036561;28;20412;-91
2022/05/13 10:06:16;;;;;;;8.57;4.33;;;17.30;99.90;;;;;;5042836;28;20460;-85
2022/05/13 10:14:39;;;;;;;7.93;3.00;;;19.00;99.90;;;;;;5025475;28;20978;-91
2022/05/13 10:17:23;;;;;;;6.10;2.20;;;19.20;99.90;;;;;;5054563;28;20902;-93
2022/05/13 10:19:54;;;;;;;4.93;2.60;;;18.90;99.90;;;;;;5054351;28;20931;-88
2022/05/13 10:22:28;;;;;;;4.33;2.80;;;18.50;99.90;;;;;;5038344;28;20824;-91
2022/05/13 10:25:03;;;;;;;5.20;1.80;;;18.40;99.90;;;;;;5055242;28;20430;-92
2022/05/13 10:27:37;;;;;;;9.50;3.23;;;18.10;99.90;;;;;;5038706;28;20459;-89
2022/05/13 10:30:17;;;;;;;6.93;2.53;;;17.70;99.90;;;;;;5055314;28;20759;-91
2022/05/13 10:33:03;;;;;;;8.07;1.90;;;17.50;99.90;;;;;;5055139;28;20410;-91
2022/05/13 10:36:01;;;;;;;9.40;2.17;;;17.00;99.90;;;;;;5054503;28;20427;-85
2022/05/13 10:38:53;;;;;;;17.60;6.80;;;16.70;99.90;;;;;;5033605;28;20447;-93
2022/05/13 10:41:25;;;;;;;8.93;2.37;;;16.50;99.90;;;;;;5040376;28;20457;-89
2022/05/13 10:44:09;;;;;;;10.40;2.20;;;16.20;99.90;;;;;;5037306;28;20787;-93
2022/05/13 10:46:58;;;;;;;8.07;1.67;;;15.70;1.00;;;;;;5061495;28;20402;-87
2022/05/13 10:49:33;;;;;;;2.70;0.70;;;14.30;2.80;;;;;;5064783;28;20410;-91
2022/05/13 10:52:20;;;;;;;1.73;0.40;;;13.40;99.90;;;;;;5059605;28;20504;-90
2022/05/13 10:54:55;;;;;;;7.50;1.23;;;13.30;99.90;;;;;;5059064;28;20494;-91
2022/05/13 10:57:58;;;;;;;1.10;0.63;;;13.90;99.90;;;;;;5041407;28;20981;-93
2022/05/13 11:00:37;;;;;;;4.97;0.97;;;14.20;99.90;;;;;;5041558;28;20413;-88
2022/05/13 11:03:13;;;;;;;3.00;1.17;;;14.90;99.90;;;;;;5042607;28;20795;-88
2022/05/13 11:06:17;;;;;;;4.23;1.23;;;15.90;99.90;;;;;;5056888;28;20427;-86
2022/05/13 11:09:04;;;;;;;2.60;0.57;;;18.10;1.00;;;;;;5057261;28;20829;-87
2022/05/13 11:11:44;;;;;;;2.73;0.73;;;18.20;1.00;;;;;;5056862;28;20418;-89
2022/05/13 11:14:27;;;;;;;2.77;1.27;;;18.60;99.90;;;;;;5057288;28;20489;-88
2022/05/13 11:17:03;;;;;;;3.20;1.57;;;19.90;1.00;;;;;;5040930;28;20430;-92
2022/05/13 11:19:37;;;;;;;7.63;1.80;;;20.10;99.90;;;;;;5057243;28;20400;-91
2022/05/13 11:22:42;;;;;;;3.53;0.80;;;20.00;1.00;;;;;;5058088;28;20403;-91
2022/05/13 11:28:03;;;;;;;2.60;1.50;;;20.30;99.90;;;;;;5057484;28;20403;-93
2022/05/13 11:30:36;;;;;;;8.53;2.10;;;19.70;99.90;;;;;;5057371;28;20411;-93
2022/05/13 11:33:38;;;;;;;4.97;1.83;;;18.60;67.60;;;;;;5057293;28;20412;-90
2022/05/13 11:36:20;;;;;;;4.20;2.10;;;17.10;99.90;;;;;;5038674;28;20435;-91
2022/05/13 11:39:25;;;;;;;6.20;2.33;;;16.80;1.00;;;;;;5056599;28;20408;-86
2022/05/13 11:42:21;;;;;;;7.10;2.40;;;16.50;1.00;;;;;;4989545;28;20583;-86
2022/05/13 11:45:22;;;;;;;6.13;2.93;;;16.70;1.00;;;;;;5038370;28;20460;-87
2022/05/13 11:48:01;;;;;;;3.50;1.93;;;17.00;99.90;;;;;;5056249;28;20461;-86
2022/05/13 11:50:31;;;;;;;5.90;2.70;;;18.20;99.90;;;;;;5056443;28;20406;-93
2022/05/13 11:52:59;;;;;;;7.40;2.63;;;17.60;1.00;;;;;;5056810;28;20445;-89
2022/05/13 11:55:43;;;;;;;6.70;2.80;;;17.20;1.00;;;;;;5056065;28;20870;-85
2022/05/13 11:58:29;;;;;;;3.70;1.27;;;16.70;1.00;;;;;;5056028;28;20441;-85
2022/05/13 12:00:58;;;;;;;7.20;1.93;;;16.20;1.00;;;;;;5037932;28;20998;-85
2022/05/13 12:03:26;;;;;;;5.50;1.93;;;15.40;99.90;;;;;;5055906;28;20953;-84
2022/05/13 12:06:03;;;;;;;6.53;1.23;;;14.90;99.90;;;;;;5055571;28;20417;-84
2022/05/13 12:08:39;;;;;;;2.90;0.70;;;14.60;99.90;;;;;;5037865;28;20425;-92
2022/05/13 12:11:43;;;;;;;4.00;0.73;;;14.50;99.90;;;;;;5037858;28;20425;-84
2022/05/13 12:14:27;;;;;;;4.10;1.23;;;14.60;99.90;;;;;;5037809;28;20476;-84
2022/05/13 12:17:05;;;;;;;4.37;1.30;;;15.00;99.90;;;;;;5055584;28;20407;-84
2022/05/13 12:19:47;;;;;;;3.13;1.00;;;15.80;99.90;;;;;;5055996;28;20467;-85
2022/05/13 12:22:40;;;;;;;2.63;0.90;;;16.90;6.90;;;;;;5055604;28;20419;-85
2022/05/13 12:25:15;;;;;;;4.73;1.10;;;18.20;1.00;;;;;;5055697;28;20450;-93
2022/05/13 12:27:46;;;;;;;2.53;0.83;;;18.90;1.00;;;;;;5055642;28;20752;-93
2022/05/13 12:30:37;;;;;;;2.93;1.13;;;19.00;1.00;;;;;;5055608;28;20443;-92
2022/05/13 12:33:19;;;;;;;4.27;2.07;;;19.50;99.90;;;;;;5037254;28;20412;-85
2022/05/13 12:38:33;;;;;;;3.23;1.30;;;18.40;1.00;;;;;;5054566;28;20415;-85
2022/05/13 12:41:17;;;;;;;2.33;1.13;;;18.10;1.00;;;;;;5032028;28;20480;-94
2022/05/13 12:44:10;;;;;;;2.10;1.53;;;17.70;99.90;;;;;;5036698;28;20547;-86
2022/05/13 12:46:48;;;;;;;3.60;1.70;;;17.30;1.00;;;;;;5055429;28;20796;-87
2022/05/13 12:49:21;;;;;;;4.90;1.40;;;17.10;1.00;;;;;;5036664;28;20421;-93
2022/05/13 12:52:00;;;;;;;4.50;2.10;;;17.10;1.00;;;;;;5036798;28;20491;-85
2022/05/13 12:54:31;;;;;;;4.73;1.60;;;18.00;1.00;;;;;;5054045;28;20479;-89
2022/05/13 12:57:11;;;;;;;2.97;1.23;;;19.30;1.00;;;;;;5054444;28;20408;-85
2022/05/13 12:59:42;;;;;;;4.30;1.30;;;18.70;99.90;;;;;;5054571;28;20503;-93
2022/05/13 13:02:08;;;;;;;3.60;1.70;;;18.10;1.00;;;;;;5055490;28;20496;-87
2022/05/13 13:04:42;;;;;;;2.03;1.60;;;17.40;1.00;;;;;;5036848;28;20516;-92
2022/05/13 13:07:11;;;;;;;4.47;1.67;;;16.60;99.90;;;;;;5054510;28;20411;-85
2022/05/13 13:09:45;;;;;;;5.50;1.80;;;16.50;1.00;;;;;;5053735;28;20423;-85
2022/05/13 13:12:31;;;;;;;2.80;2.07;;;16.90;1.00;;;;;;5036789;28;20942;-84
2022/05/13 13:15:15;;;;;;;2.27;1.13;;;17.30;1.00;;;;;;5053999;28;20475;-85
2022/05/13 13:18:10;;;;;;;4.20;0.73;;;17.50;1.00;;;;;;5037233;28;20489;-93
2022/05/13 13:20:56;;;;;;;2.27;0.40;;;18.60;99.90;;;;;;5036684;28;20419;-90
2022/05/13 13:23:22;;;;;;;2.80;0.73;;;18.60;1.00;;;;;;5036514;28;20476;-84
2022/05/13 13:25:52;;;;;;;3.37;0.90;;;19.00;1.00;;;;;;5054009;28;20447;-85
2022/05/13 13:28:25;;;;;;;3.57;0.60;;;19.00;1.00;;;;;;5054300;28;20462;-92
2022/05/13 13:30:57;;;;;;;4.40;0.90;;;18.50;99.90;;;;;;5036554;28;20420;-84
2022/05/13 13:33:28;;;;;;;6.43;0.80;;;18.60;1.00;;;;;;5035912;28;20420;-84
2022/05/13 13:36:13;;;;;;;3.00;0.80;;;18.50;66.00;;;;;;5053428;28;20919;-85
2022/05/13 13:38:41;;;;;;;3.53;0.90;;;18.50;1.00;;;;;;5053752;28;20416;-84
2022/05/13 13:41:07;;;;;;;5.57;1.33;;;18.50;1.00;;;;;;5036250;28;20426;-84
2022/05/13 13:43:36;;;;;;;4.30;1.10;;;18.10;1.00;;;;;;5036107;28;20454;-93
2022/05/13 13:46:19;;;;;;;4.47;0.83;;;17.90;48.90;;;;;;5073920;28;20495;-84